Time;durP1;ratioP1;P1;durP2;ratioP2;P2;SDS_P1;SDS_P2;PMS_P1;PMS_P2;Temp;Humidity;BMP_temperature;BMP_pressure;BME280_temperature;BME280_humidity;BME280_pressure;Samples;Min_cycle;Max_cycle;Signal;HPM_P1;HPM_P2
2023/05/04 00:00:06;;;;;;;19.00;9.50;;;;;;;;;;5053754;28;20372;-68
2023/05/04 00:02:31;;;;;;;18.10;8.53;;;;;;;;;;5052517;28;20024;-68
2023/05/04 00:04:56;;;;;;;15.97;8.80;;;;;;;;;;5053516;28;20432;-67
2023/05/04 00:07:22;;;;;;;17.20;9.40;;;;;;;;;;5052631;28;20388;-67
2023/05/04 00:09:48;;;;;;;17.23;8.97;;;;;;;;;;5049241;28;20052;-67
2023/05/04 00:12:14;;;;;;;16.33;8.80;;;;;;;;;;5053291;28;20103;-67
2023/05/04 00:14:39;;;;;;;15.10;8.13;;;;;;;;;;5051158;28;20051;-67
2023/05/04 00:17:06;;;;;;;13.83;7.97;;;;;;;;;;5052545;28;20087;-67
2023/05/04 00:19:33;;;;;;;19.43;8.83;;;;;;;;;;5052844;28;20021;-67
2023/05/04 00:21:58;;;;;;;15.87;8.70;;;;;;;;;;5052830;28;20468;-68
2023/05/04 00:24:23;;;;;;;14.70;7.90;;;;;;;;;;5049895;28;20060;-68
2023/05/04 00:26:49;;;;;;;15.93;8.60;;;;;;;;;;5052390;28;20043;-67
2023/05/04 00:29:14;;;;;;;15.73;8.53;;;;;;;;;;5052603;28;20423;-67
2023/05/04 00:31:39;;;;;;;16.27;8.20;;;;;;;;;;5052961;28;20111;-67
2023/05/04 00:34:05;;;;;;;15.90;9.07;;;;;;;;;;5052394;28;20025;-67
2023/05/04 00:36:30;;;;;;;14.57;8.33;;;;;;;;;;5053726;28;20028;-67
2023/05/04 00:38:55;;;;;;;13.57;7.30;;;;;;;;;;5050903;28;20075;-67
2023/05/04 00:41:21;;;;;;;16.93;7.97;;;;;;;;;;5051869;28;20487;-67
2023/05/04 00:43:46;;;;;;;14.90;8.57;;;;;;;;;;5053809;28;20056;-67
2023/05/04 00:46:12;;;;;;;16.20;8.17;;;;;;;;;;5051374;28;20377;-67
2023/05/04 00:48:38;;;;;;;14.60;8.50;;;;;;;;;;5052141;28;20029;-67
2023/05/04 00:51:05;;;;;;;20.50;8.57;;;;;;;;;;5051904;28;20035;-69
2023/05/04 00:53:30;;;;;;;16.03;8.30;;;;;;;;;;5050158;28;20112;-68
2023/05/04 00:55:55;;;;;;;16.20;8.13;;;;;;;;;;5051069;28;20108;-67
2023/05/04 00:58:21;;;;;;;15.27;8.43;;;;;;;;;;5051118;28;20493;-67
2023/05/04 01:03:53;;;;;;;15.73;8.70;;;;;;;;;;5062061;22;20072;-63
2023/05/04 01:06:46;;;;;;;17.33;8.30;;;;;;;;;;5070264;28;20033;-62
2023/05/04 01:09:34;;;;;;;15.37;8.47;;;;;;;;;;5040869;28;20106;-62
2023/05/04 01:12:03;;;;;;;14.30;8.17;;;;;;;;;;5067888;28;20361;-62
2023/05/04 01:14:29;;;;;;;16.63;8.70;;;;;;;;;;5070105;28;20039;-64
2023/05/04 01:16:56;;;;;;;17.77;9.60;;;;;;;;;;5071386;28;20483;-62
2023/05/04 01:19:21;;;;;;;15.13;8.00;;;;;;;;;;5075245;28;20021;-62
2023/05/04 01:21:47;;;;;;;15.50;8.33;;;;;;;;;;5073218;28;20368;-62
2023/05/04 01:24:12;;;;;;;21.33;9.23;;;;;;;;;;5070434;28;20028;-62
2023/05/04 01:26:40;;;;;;;16.47;8.27;;;;;;;;;;5071821;28;20072;-62
2023/05/04 01:29:26;;;;;;;20.60;9.10;;;;;;;;;;5072359;28;20379;-62
2023/05/04 01:31:51;;;;;;;16.73;8.07;;;;;;;;;;5071060;28;20468;-62
2023/05/04 01:34:17;;;;;;;15.23;7.93;;;;;;;;;;5071804;28;20089;-62
2023/05/04 01:36:43;;;;;;;20.17;8.30;;;;;;;;;;5072753;28;20116;-62
2023/05/04 01:39:08;;;;;;;16.57;9.20;;;;;;;;;;5070644;28;20471;-62
2023/05/04 01:41:34;;;;;;;18.83;9.43;;;;;;;;;;5071959;28;20036;-62
2023/05/04 01:44:00;;;;;;;19.03;8.53;;;;;;;;;;5053044;28;20059;-62
2023/05/04 01:46:25;;;;;;;15.90;9.03;;;;;;;;;;5071475;28;20016;-62
2023/05/04 01:48:51;;;;;;;18.20;7.70;;;;;;;;;;5072923;28;20044;-62
2023/05/04 01:51:16;;;;;;;16.20;9.07;;;;;;;;;;5075874;28;20427;-62
2023/05/04 01:53:41;;;;;;;19.50;9.60;;;;;;;;;;5074928;28;20032;-62
2023/05/04 01:56:07;;;;;;;16.63;8.50;;;;;;;;;;5076476;28;20391;-62
2023/05/04 01:58:32;;;;;;;18.40;9.07;;;;;;;;;;5075717;28;20391;-62
2023/05/04 02:01:00;;;;;;;17.07;9.03;;;;;;;;;;5075175;28;20021;-62
2023/05/04 02:03:25;;;;;;;15.43;8.77;;;;;;;;;;5074713;28;20048;-63
2023/05/04 02:05:51;;;;;;;16.90;8.70;;;;;;;;;;5076847;28;20440;-63
2023/05/04 02:08:16;;;;;;;16.67;8.97;;;;;;;;;;5074870;28;20055;-63
2023/05/04 02:10:42;;;;;;;17.03;8.27;;;;;;;;;;5075665;28;20100;-63
2023/05/04 02:13:07;;;;;;;15.83;9.30;;;;;;;;;;5073932;28;20035;-63
2023/05/04 02:15:32;;;;;;;21.30;8.73;;;;;;;;;;5074757;28;20017;-63
2023/05/04 02:17:58;;;;;;;20.40;8.93;;;;;;;;;;5075975;28;20384;-64
2023/05/04 02:20:23;;;;;;;22.90;9.17;;;;;;;;;;5073435;28;20017;-64
2023/05/04 02:22:48;;;;;;;18.23;8.50;;;;;;;;;;5075718;28;20043;-63
2023/05/04 02:25:13;;;;;;;17.23;9.80;;;;;;;;;;5076349;28;20024;-64
2023/05/04 02:27:39;;;;;;;19.23;9.80;;;;;;;;;;5076004;28;20028;-63
2023/05/04 02:30:05;;;;;;;17.97;9.40;;;;;;;;;;5073972;28;20049;-63
2023/05/04 02:32:30;;;;;;;18.37;10.27;;;;;;;;;;5073653;28;20032;-63
2023/05/04 02:34:56;;;;;;;17.70;10.20;;;;;;;;;;5075690;28;20027;-63
2023/05/04 02:37:21;;;;;;;16.13;10.60;;;;;;;;;;5074981;28;20086;-64
2023/05/04 02:39:46;;;;;;;21.57;9.73;;;;;;;;;;5074022;28;20154;-63
2023/05/04 02:42:12;;;;;;;19.40;10.00;;;;;;;;;;5076042;28;20021;-63
2023/05/04 02:44:37;;;;;;;18.83;9.93;;;;;;;;;;5075135;28;20479;-64
2023/05/04 02:47:04;;;;;;;17.93;9.93;;;;;;;;;;5073825;28;20040;-64
2023/05/04 02:49:30;;;;;;;19.43;10.00;;;;;;;;;;5075432;28;20043;-63
2023/05/04 02:51:55;;;;;;;18.60;9.70;;;;;;;;;;5074895;28;20020;-63
2023/05/04 02:54:20;;;;;;;18.77;9.37;;;;;;;;;;5073012;28;20026;-63
2023/05/04 02:56:45;;;;;;;21.30;10.47;;;;;;;;;;5073880;28;20062;-68
2023/05/04 02:59:11;;;;;;;22.83;11.03;;;;;;;;;;5074512;28;20044;-68
2023/05/04 03:01:36;;;;;;;20.33;11.47;;;;;;;;;;5073949;28;20030;-68
2023/05/04 03:04:02;;;;;;;20.40;10.77;;;;;;;;;;5072459;28;20484;-69
2023/05/04 03:06:27;;;;;;;18.20;10.00;;;;;;;;;;5075724;28;20019;-68
2023/05/04 03:08:52;;;;;;;24.50;11.53;;;;;;;;;;5074222;28;20443;-68
2023/05/04 03:11:18;;;;;;;19.20;10.70;;;;;;;;;;5074639;28;20070;-68
2023/05/04 03:13:43;;;;;;;20.07;10.87;;;;;;;;;;5074051;28;20024;-69
2023/05/04 03:16:08;;;;;;;20.07;10.67;;;;;;;;;;5074197;28;20029;-69
2023/05/04 03:18:34;;;;;;;20.73;10.40;;;;;;;;;;5074158;28;20021;-67
2023/05/04 03:20:59;;;;;;;17.10;9.90;;;;;;;;;;5075033;28;20027;-67
2023/05/04 03:23:25;;;;;;;19.60;9.27;;;;;;;;;;5074702;28;20025;-69
2023/05/04 03:25:50;;;;;;;18.87;9.63;;;;;;;;;;5071957;28;20020;-68
2023/05/04 03:28:15;;;;;;;17.90;10.07;;;;;;;;;;5074688;28;20032;-69
2023/05/04 03:30:41;;;;;;;17.53;9.30;;;;;;;;;;5073453;28;20490;-68
2023/05/04 03:33:06;;;;;;;17.93;9.17;;;;;;;;;;5073245;28;20199;-68
2023/05/04 03:35:31;;;;;;;19.77;9.63;;;;;;;;;;5072828;28;20024;-66
2023/05/04 03:37:57;;;;;;;18.37;9.83;;;;;;;;;;5069634;28;20491;-67
2023/05/04 03:40:23;;;;;;;17.33;9.87;;;;;;;;;;5073960;28;20020;-68
2023/05/04 03:42:48;;;;;;;14.67;8.67;;;;;;;;;;5074004;28;20090;-66
2023/05/04 03:45:14;;;;;;;19.53;9.30;;;;;;;;;;5073939;28;20017;-67
2023/05/04 03:47:39;;;;;;;17.47;8.77;;;;;;;;;;5072304;28;20498;-67
2023/05/04 03:50:05;;;;;;;19.00;9.53;;;;;;;;;;5074000;28;20021;-67
2023/05/04 03:52:30;;;;;;;15.80;9.00;;;;;;;;;;5074137;28;20020;-67
2023/05/04 03:54:55;;;;;;;17.23;10.00;;;;;;;;;;5073066;28;20036;-67
2023/05/04 03:57:23;;;;;;;19.33;9.33;;;;;;;;;;5069150;28;20016;-68
2023/05/04 03:59:48;;;;;;;17.90;9.60;;;;;;;;;;5073551;28;20023;-68
2023/05/04 04:02:13;;;;;;;21.43;10.70;;;;;;;;;;5059461;28;20477;-67
2023/05/04 04:04:38;;;;;;;17.33;10.03;;;;;;;;;;5059595;28;20051;-67
2023/05/04 04:07:04;;;;;;;18.57;10.40;;;;;;;;;;5074201;28;20020;-68
2023/05/04 04:09:29;;;;;;;14.33;8.90;;;;;;;;;;5069407;28;20017;-68
2023/05/04 04:11:54;;;;;;;17.93;8.80;;;;;;;;;;5070348;28;20024;-68
2023/05/04 04:14:20;;;;;;;18.13;10.40;;;;;;;;;;5072400;28;20017;-68
2023/05/04 04:16:45;;;;;;;17.60;9.03;;;;;;;;;;5071312;28;20016;-68
2023/05/04 04:19:10;;;;;;;17.67;9.50;;;;;;;;;;5073379;28;20020;-68
2023/05/04 04:21:36;;;;;;;18.30;8.53;;;;;;;;;;5073201;28;20438;-68
2023/05/04 04:24:01;;;;;;;15.53;9.27;;;;;;;;;;5072156;28;20047;-68
2023/05/04 04:26:27;;;;;;;16.77;9.47;;;;;;;;;;5068515;28;20508;-68
2023/05/04 04:28:52;;;;;;;17.70;8.90;;;;;;;;;;5070432;28;20031;-68
2023/05/04 04:31:17;;;;;;;18.50;8.63;;;;;;;;;;5070730;28;20025;-68
2023/05/04 04:33:43;;;;;;;13.90;8.13;;;;;;;;;;5073523;28;20052;-68
2023/05/04 04:36:10;;;;;;;19.57;9.00;;;;;;;;;;5071113;28;20024;-69
2023/05/04 04:38:36;;;;;;;17.30;8.27;;;;;;;;;;5069871;28;20017;-68
2023/05/04 04:41:02;;;;;;;14.10;7.53;;;;;;;;;;5071571;28;20019;-68
2023/05/04 04:43:27;;;;;;;16.67;8.87;;;;;;;;;;5071677;28;20024;-68
2023/05/04 04:45:52;;;;;;;14.50;8.60;;;;;;;;;;5069895;28;20020;-68
2023/05/04 04:48:20;;;;;;;16.10;8.30;;;;;;;;;;5071628;28;20024;-68
2023/05/04 04:50:45;;;;;;;16.13;8.60;;;;;;;;;;5067697;28;20096;-68
2023/05/04 04:53:10;;;;;;;17.03;9.40;;;;;;;;;;5071159;28;20166;-68
2023/05/04 04:55:36;;;;;;;14.97;8.07;;;;;;;;;;5071222;28;20382;-68
2023/05/04 04:58:01;;;;;;;16.13;7.90;;;;;;;;;;5069285;28;20519;-67
2023/05/04 05:00:26;;;;;;;15.73;7.80;;;;;;;;;;5071391;28;20074;-68
2023/05/04 05:02:53;;;;;;;13.17;7.10;;;;;;;;;;5071754;28;20013;-67
2023/05/04 05:05:18;;;;;;;13.10;7.33;;;;;;;;;;5072835;28;20417;-67
2023/05/04 05:07:43;;;;;;;14.17;7.60;;;;;;;;;;5069844;28;20048;-67
2023/05/04 05:10:09;;;;;;;14.83;6.87;;;;;;;;;;5071089;28;20039;-68
2023/05/04 05:12:34;;;;;;;13.93;6.80;;;;;;;;;;5070254;28;20039;-67
2023/05/04 05:15:00;;;;;;;14.37;6.90;;;;;;;;;;5071991;28;20021;-68
2023/05/04 05:17:25;;;;;;;13.43;6.93;;;;;;;;;;5072766;28;20073;-68
2023/05/04 05:19:51;;;;;;;13.20;6.63;;;;;;;;;;5073433;28;20094;-68
2023/05/04 05:22:16;;;;;;;11.37;6.00;;;;;;;;;;5072652;28;20472;-68
2023/05/04 05:24:42;;;;;;;13.30;6.50;;;;;;;;;;5070803;28;20388;-68
2023/05/04 05:27:07;;;;;;;13.13;6.50;;;;;;;;;;5071927;28;20034;-68
2023/05/04 05:29:32;;;;;;;12.97;6.10;;;;;;;;;;5072429;28;20100;-68
2023/05/04 05:31:58;;;;;;;13.07;6.57;;;;;;;;;;5067922;28;20482;-68
2023/05/04 05:34:23;;;;;;;15.60;6.30;;;;;;;;;;5071426;28;20433;-68
2023/05/04 05:36:48;;;;;;;10.30;5.77;;;;;;;;;;5069675;28;20537;-68
2023/05/04 05:39:14;;;;;;;12.03;6.00;;;;;;;;;;5072116;28;20036;-69
2023/05/04 05:41:39;;;;;;;10.33;4.97;;;;;;;;;;5072825;28;20025;-68
2023/05/04 05:44:05;;;;;;;15.97;5.43;;;;;;;;;;5071810;28;20024;-68
2023/05/04 05:46:30;;;;;;;10.50;5.03;;;;;;;;;;5063284;28;20013;-68
2023/05/04 05:48:55;;;;;;;12.50;5.97;;;;;;;;;;5068667;28;20376;-68
2023/05/04 05:51:21;;;;;;;12.30;5.70;;;;;;;;;;5069776;28;20021;-68
2023/05/04 05:53:46;;;;;;;12.43;5.30;;;;;;;;;;5065318;28;20446;-69
2023/05/04 05:56:13;;;;;;;8.90;5.20;;;;;;;;;;5047311;28;20020;-67
2023/05/04 05:58:38;;;;;;;7.50;4.50;;;;;;;;;;5071475;28;20449;-67
2023/05/04 06:01:04;;;;;;;12.30;5.07;;;;;;;;;;5072927;28;20021;-68
2023/05/04 06:03:29;;;;;;;9.23;5.40;;;;;;;;;;5071222;28;20079;-69
2023/05/04 06:05:55;;;;;;;8.77;4.60;;;;;;;;;;5071011;28;20022;-68
2023/05/04 06:08:20;;;;;;;9.63;5.00;;;;;;;;;;5072550;28;20020;-68
2023/05/04 06:10:45;;;;;;;10.37;5.23;;;;;;;;;;5072968;28;20039;-68
2023/05/04 06:13:11;;;;;;;10.37;3.63;;;;;;;;;;5071144;28;20641;-68
2023/05/04 06:15:36;;;;;;;9.83;4.83;;;;;;;;;;5072495;28;20074;-68
2023/05/04 06:18:01;;;;;;;10.80;4.73;;;;;;;;;;5072854;28;20016;-68
2023/05/04 06:20:27;;;;;;;10.77;3.63;;;;;;;;;;5071339;28;20425;-68
2023/05/04 06:22:53;;;;;;;10.37;4.63;;;;;;;;;;5071592;28;20019;-67
2023/05/04 06:25:18;;;;;;;8.20;5.00;;;;;;;;;;5072705;28;20024;-68
2023/05/04 06:27:43;;;;;;;9.73;5.33;;;;;;;;;;5072537;28;20490;-67
2023/05/04 06:30:09;;;;;;;10.47;4.60;;;;;;;;;;5072114;28;20396;-68
2023/05/04 06:32:35;;;;;;;10.93;4.20;;;;;;;;;;5070516;28;20031;-67
2023/05/04 06:35:01;;;;;;;7.47;4.20;;;;;;;;;;5070562;28;20506;-68
2023/05/04 06:37:26;;;;;;;9.67;5.10;;;;;;;;;;5057718;28;20033;-67
2023/05/04 06:39:51;;;;;;;9.47;4.43;;;;;;;;;;5075429;28;20472;-68
2023/05/04 06:42:17;;;;;;;9.03;4.50;;;;;;;;;;5075730;28;20024;-67
2023/05/04 06:44:42;;;;;;;11.17;5.10;;;;;;;;;;5075528;28;20020;-67
2023/05/04 06:47:07;;;;;;;10.30;4.50;;;;;;;;;;5073711;28;20028;-68
2023/05/04 06:49:33;;;;;;;11.97;4.33;;;;;;;;;;5075422;28;20052;-67
2023/05/04 06:51:59;;;;;;;8.00;3.53;;;;;;;;;;5075730;28;20078;-67
2023/05/04 06:54:24;;;;;;;12.43;4.50;;;;;;;;;;5076169;28;20023;-67
2023/05/04 06:56:50;;;;;;;8.97;3.90;;;;;;;;;;5074843;28;20472;-67
2023/05/04 06:59:16;;;;;;;8.07;3.77;;;;;;;;;;5074262;28;20060;-67
2023/05/04 07:01:41;;;;;;;13.67;4.10;;;;;;;;;;5075120;28;20086;-67
2023/05/04 07:04:06;;;;;;;8.57;4.07;;;;;;;;;;5071588;28;20043;-67
2023/05/04 07:06:32;;;;;;;8.00;3.97;;;;;;;;;;5075446;28;20020;-67
2023/05/04 07:08:57;;;;;;;10.70;3.83;;;;;;;;;;5075832;28;20013;-67
2023/05/04 07:11:23;;;;;;;7.70;3.77;;;;;;;;;;5075532;28;20429;-67
2023/05/04 07:13:49;;;;;;;9.10;4.00;;;;;;;;;;5075025;28;20051;-67
2023/05/04 07:16:14;;;;;;;9.30;4.10;;;;;;;;;;5075293;28;20025;-67
2023/05/04 07:18:40;;;;;;;7.83;3.50;;;;;;;;;;5075077;28;20021;-67
2023/05/04 07:21:08;;;;;;;8.43;3.70;;;;;;;;;;5071483;28;20028;-68
2023/05/04 07:23:33;;;;;;;9.53;3.97;;;;;;;;;;5074981;28;20484;-68
2023/05/04 07:25:59;;;;;;;10.53;4.20;;;;;;;;;;5073794;28;20027;-67
2023/05/04 07:28:24;;;;;;;8.07;3.90;;;;;;;;;;5075593;28;20036;-67
2023/05/04 07:30:50;;;;;;;10.20;3.90;;;;;;;;;;5075430;28;20074;-67
2023/05/04 07:33:15;;;;;;;6.77;3.70;;;;;;;;;;5075414;28;20376;-68
2023/05/04 07:35:40;;;;;;;10.33;3.03;;;;;;;;;;5073594;28;20480;-67
2023/05/04 07:38:07;;;;;;;8.63;3.80;;;;;;;;;;5075226;28;20031;-68
2023/05/04 07:40:32;;;;;;;9.20;3.83;;;;;;;;;;5074389;28;20456;-67
2023/05/04 07:42:57;;;;;;;9.97;3.70;;;;;;;;;;5075186;28;20065;-67
2023/05/04 07:45:22;;;;;;;9.70;3.60;;;;;;;;;;5074899;28;20151;-68
2023/05/04 07:47:48;;;;;;;7.57;3.42;;;;;;;;;;5072845;28;20031;-68
2023/05/04 07:50:14;;;;;;;8.23;3.45;;;;;;;;;;5073359;28;20070;-68
2023/05/04 07:52:39;;;;;;;8.05;3.45;;;;;;;;;;5075012;28;20508;-68
2023/05/04 07:55:05;;;;;;;8.48;3.50;;;;;;;;;;5074830;28;20016;-68
2023/05/04 07:57:31;;;;;;;7.50;3.22;;;;;;;;;;5074039;28;20024;-67
2023/05/04 07:59:56;;;;;;;8.25;3.72;;;;;;;;;;5073135;28;20067;-67
2023/05/04 08:02:21;;;;;;;10.75;4.20;;;;;;;;;;5074869;28;20036;-67
2023/05/04 08:04:47;;;;;;;11.02;3.55;;;;;;;;;;5072530;28;20037;-67
2023/05/04 08:07:15;;;;;;;10.48;3.50;;;;;;;;;;5074630;28;20095;-67
2023/05/04 08:09:40;;;;;;;8.65;3.55;;;;;;;;;;5073565;28;20561;-67
2023/05/04 08:12:06;;;;;;;7.32;3.20;;;;;;;;;;5074763;28;20033;-67
2023/05/04 08:14:32;;;;;;;9.35;3.70;;;;;;;;;;5074513;28;20017;-68
2023/05/04 08:16:57;;;;;;;6.50;3.40;;;;;;;;;;5074242;28;20050;-66
2023/05/04 08:19:23;;;;;;;6.90;3.58;;;;;;;;;;5074025;28;20044;-67
2023/05/04 08:21:48;;;;;;;10.80;4.00;;;;;;;;;;5073275;28;20020;-67
2023/05/04 08:24:14;;;;;;;5.90;2.78;;;;;;;;;;5074139;28;20021;-66
2023/05/04 08:26:39;;;;;;;6.93;3.00;;;;;;;;;;5072271;28;20499;-67
2023/05/04 08:29:06;;;;;;;10.13;3.75;;;;;;;;;;5073734;28;20020;-67
2023/05/04 08:31:31;;;;;;;8.13;3.20;;;;;;;;;;5074310;28;20427;-67
2023/05/04 08:33:57;;;;;;;6.32;3.03;;;;;;;;;;5074183;28;20023;-67
2023/05/04 08:36:22;;;;;;;8.40;3.80;;;;;;;;;;5072511;28;20391;-67
2023/05/04 08:38:49;;;;;;;9.15;3.63;;;;;;;;;;5073672;28;20111;-67
2023/05/04 08:41:15;;;;;;;6.88;3.70;;;;;;;;;;5074108;28;20488;-67
2023/05/04 08:43:41;;;;;;;8.20;3.47;;;;;;;;;;5074044;28;20369;-68
2023/05/04 08:46:07;;;;;;;8.38;3.33;;;;;;;;;;5073267;28;20503;-66
2023/05/04 08:48:33;;;;;;;7.05;2.90;;;;;;;;;;5073196;28;20028;-68
2023/05/04 08:50:59;;;;;;;9.80;3.28;;;;;;;;;;5072042;28;20401;-67
2023/05/04 08:53:25;;;;;;;6.38;2.72;;;;;;;;;;5073807;28;20024;-67
2023/05/04 08:55:52;;;;;;;4.88;2.45;;;;;;;;;;5073648;28;20076;-67
2023/05/04 08:58:17;;;;;;;7.47;3.40;;;;;;;;;;5073599;28;20376;-68
2023/05/04 09:00:44;;;;;;;8.40;3.13;;;;;;;;;;5072317;28;20017;-67
2023/05/04 09:03:10;;;;;;;9.57;3.30;;;;;;;;;;5072985;28;20024;-67
2023/05/04 09:05:37;;;;;;;6.57;3.17;;;;;;;;;;5070895;28;20254;-67
2023/05/04 09:08:02;;;;;;;6.35;2.92;;;;;;;;;;5073272;28;20017;-67
2023/05/04 09:10:29;;;;;;;8.73;3.30;;;;;;;;;;5073426;28;20028;-68
2023/05/04 09:12:54;;;;;;;8.38;3.70;;;;;;;;;;5072741;28;20078;-67
2023/05/04 09:15:20;;;;;;;5.97;2.80;;;;;;;;;;5055162;28;20476;-68
2023/05/04 09:18:00;;;;;;;5.95;2.47;;;;;;;;;;5073458;28;20048;-67
2023/05/04 09:20:26;;;;;;;5.97;2.58;;;;;;;;;;5071708;28;20093;-67
2023/05/04 09:23:02;;;;;;;7.40;3.05;;;;;;;;;;5072793;28;20476;-68
2023/05/04 09:25:27;;;;;;;7.32;2.78;;;;;;;;;;5073074;28;20028;-67
2023/05/04 09:27:55;;;;;;;7.28;3.30;;;;;;;;;;5071425;28;20020;-68
2023/05/04 09:30:21;;;;;;;7.15;3.20;;;;;;;;;;5073117;28;20484;-67
2023/05/04 09:32:49;;;;;;;8.93;3.05;;;;;;;;;;5073299;28;20099;-68
2023/05/04 09:35:16;;;;;;;6.97;3.40;;;;;;;;;;5072352;28;20024;-67
2023/05/04 09:37:43;;;;;;;6.05;3.22;;;;;;;;;;5071499;28;20514;-67
2023/05/04 09:40:09;;;;;;;7.82;3.40;;;;;;;;;;5072929;28;20028;-68
2023/05/04 09:42:35;;;;;;;8.00;3.20;;;;;;;;;;5072956;28;20016;-68
2023/05/04 09:45:03;;;;;;;10.45;3.80;;;;;;;;;;5073242;28;20020;-67
2023/05/04 09:47:39;;;;;;;8.45;2.60;;;;;;;;;;5069601;28;20467;-69
2023/05/04 09:50:11;;;;;;;8.70;3.15;;;;;;;;;;5053109;28;20476;-68
2023/05/04 09:52:37;;;;;;;6.53;2.85;;;;;;;;;;5067581;28;20039;-68
2023/05/04 09:55:03;;;;;;;6.63;2.63;;;;;;;;;;5073022;28;20440;-68
2023/05/04 09:57:29;;;;;;;5.63;2.00;;;;;;;;;;5072338;28;20017;-68
2023/05/04 09:59:54;;;;;;;6.35;3.10;;;;;;;;;;5072692;28;20039;-68
2023/05/04 10:02:20;;;;;;;6.95;3.15;;;;;;;;;;5068979;28;20021;-68
2023/05/04 10:04:45;;;;;;;4.82;2.45;;;;;;;;;;5071473;28;20056;-68
2023/05/04 10:07:11;;;;;;;5.13;2.80;;;;;;;;;;5071054;28;20417;-68
2023/05/04 10:09:37;;;;;;;6.68;2.60;;;;;;;;;;5072892;28;20020;-68
2023/05/04 10:12:04;;;;;;;10.13;3.08;;;;;;;;;;5076173;28;20024;-68
2023/05/04 10:14:32;;;;;;;6.13;2.70;;;;;;;;;;5075570;28;20017;-68
2023/05/04 10:17:24;;;;;;;8.05;2.97;;;;;;;;;;5076863;28;20029;-69
2023/05/04 10:20:07;;;;;;;7.55;3.25;;;;;;;;;;5014574;28;20061;-69
2023/05/04 10:22:55;;;;;;;6.47;2.75;;;;;;;;;;5013980;28;20057;-68
2023/05/04 10:25:43;;;;;;;5.13;2.80;;;;;;;;;;5014583;28;20510;-68
2023/05/04 10:28:35;;;;;;;6.72;2.75;;;;;;;;;;4987309;28;20030;-68
2023/05/04 10:31:01;;;;;;;5.15;2.47;;;;;;;;;;5011606;28;20482;-68
2023/05/04 10:33:36;;;;;;;3.88;2.20;;;;;;;;;;5010542;28;20125;-69
2023/05/04 10:36:02;;;;;;;6.22;2.83;;;;;;;;;;4994845;28;20121;-68
2023/05/04 10:38:30;;;;;;;5.97;3.03;;;;;;;;;;5010068;28;20117;-68
2023/05/04 10:40:56;;;;;;;9.07;3.53;;;;;;;;;;5014415;28;20222;-68
2023/05/04 10:43:25;;;;;;;5.00;2.35;;;;;;;;;;5014134;28;20481;-69
2023/05/04 10:45:50;;;;;;;7.65;2.97;;;;;;;;;;5013758;28;20041;-68
2023/05/04 10:48:16;;;;;;;5.80;3.08;;;;;;;;;;5014086;28;20028;-68
2023/05/04 10:50:48;;;;;;;6.85;2.70;;;;;;;;;;5013486;28;20069;-68
2023/05/04 10:53:14;;;;;;;8.00;2.97;;;;;;;;;;5008986;28;20498;-69
2023/05/04 10:55:40;;;;;;;4.78;2.70;;;;;;;;;;5001455;28;20022;-68
2023/05/04 10:58:06;;;;;;;5.18;2.55;;;;;;;;;;5056063;28;20110;-68
2023/05/04 11:00:37;;;;;;;9.73;3.78;;;;;;;;;;5065612;28;20024;-68
2023/05/04 11:03:03;;;;;;;7.78;3.28;;;;;;;;;;5074503;28;20461;-68
2023/05/04 11:05:38;;;;;;;6.55;3.33;;;;;;;;;;5075329;28;20115;-68
2023/05/04 11:08:13;;;;;;;8.32;3.20;;;;;;;;;;5072773;28;20020;-68
2023/05/04 11:10:38;;;;;;;7.93;2.95;;;;;;;;;;5073511;28;20059;-68
2023/05/04 11:13:04;;;;;;;4.68;1.90;;;;;;;;;;5074919;28;20024;-68
2023/05/04 11:15:30;;;;;;;6.75;2.80;;;;;;;;;;5075088;28;20095;-68
2023/05/04 11:17:55;;;;;;;6.65;2.95;;;;;;;;;;5074600;28;20031;-69
2023/05/04 11:20:22;;;;;;;8.85;2.63;;;;;;;;;;5075333;28;20017;-68
2023/05/04 11:22:47;;;;;;;5.82;1.85;;;;;;;;;;5072849;28;20059;-68
2023/05/04 11:25:12;;;;;;;5.75;2.88;;;;;;;;;;5075639;28;20067;-68
2023/05/04 11:27:38;;;;;;;5.30;2.47;;;;;;;;;;5075157;28;20392;-68
2023/05/04 11:30:04;;;;;;;6.30;2.70;;;;;;;;;;5074047;28;20024;-68
2023/05/04 11:32:36;;;;;;;7.28;2.97;;;;;;;;;;5074458;28;20024;-69
2023/05/04 11:35:03;;;;;;;6.22;2.88;;;;;;;;;;5073906;28;20028;-68
2023/05/04 11:37:28;;;;;;;9.68;3.08;;;;;;;;;;5074959;28;20082;-68
2023/05/04 11:39:54;;;;;;;7.05;3.03;;;;;;;;;;5073734;28;20476;-68
2023/05/04 11:42:20;;;;;;;5.13;2.00;;;;;;;;;;5074939;28;20040;-68
2023/05/04 11:44:45;;;;;;;6.38;3.00;;;;;;;;;;5074906;28;20056;-68
2023/05/04 11:47:12;;;;;;;6.15;2.80;;;;;;;;;;5074010;28;20054;-68
2023/05/04 11:49:38;;;;;;;4.10;2.35;;;;;;;;;;5054799;28;20017;-68
2023/05/04 11:52:04;;;;;;;11.85;3.58;;;;;;;;;;5055028;28;20017;-68
2023/05/04 11:54:29;;;;;;;6.13;2.90;;;;;;;;;;5070924;28;20081;-68
2023/05/04 11:56:55;;;;;;;9.77;3.03;;;;;;;;;;5074542;28;20471;-68
2023/05/04 11:59:20;;;;;;;8.05;3.10;;;;;;;;;;5074499;28;20028;-68
2023/05/04 12:01:46;;;;;;;5.38;2.72;;;;;;;;;;5074673;28;20403;-68
2023/05/04 12:04:12;;;;;;;6.03;2.58;;;;;;;;;;5072945;28;20056;-68
2023/05/04 12:06:37;;;;;;;5.70;2.25;;;;;;;;;;5074737;28;20057;-68
2023/05/04 12:09:05;;;;;;;7.82;2.85;;;;;;;;;;5072940;28;20029;-68
2023/05/04 12:11:31;;;;;;;8.88;3.38;;;;;;;;;;5074544;28;20051;-68
2023/05/04 12:14:06;;;;;;;9.75;3.50;;;;;;;;;;5073001;28;20070;-68
2023/05/04 12:16:32;;;;;;;6.22;2.70;;;;;;;;;;5074295;28;20019;-68
2023/05/04 12:19:02;;;;;;;8.80;3.60;;;;;;;;;;5074160;28;20472;-68
2023/05/04 12:21:28;;;;;;;4.70;2.67;;;;;;;;;;5074206;28;20012;-68
2023/05/04 12:23:55;;;;;;;10.02;3.25;;;;;;;;;;5073380;28;20027;-68
2023/05/04 12:26:20;;;;;;;6.45;3.05;;;;;;;;;;5074311;28;20023;-68
2023/05/04 12:28:46;;;;;;;6.32;3.25;;;;;;;;;;5073158;28;20036;-68
2023/05/04 12:31:11;;;;;;;7.18;3.10;;;;;;;;;;5074003;28;20025;-69
2023/05/04 12:33:36;;;;;;;8.60;3.53;;;;;;;;;;5073764;28;20099;-69
2023/05/04 12:36:03;;;;;;;6.53;2.90;;;;;;;;;;5073883;28;20021;-68
2023/05/04 12:38:28;;;;;;;5.90;2.75;;;;;;;;;;5073056;28;20511;-69
2023/05/04 12:40:54;;;;;;;11.18;3.33;;;;;;;;;;5074113;28;20045;-69
2023/05/04 12:43:21;;;;;;;5.22;2.70;;;;;;;;;;5074012;28;20092;-69
2023/05/04 12:45:50;;;;;;;9.27;2.90;;;;;;;;;;5073712;28;20012;-68
2023/05/04 12:48:15;;;;;;;6.63;3.03;;;;;;;;;;5073662;28;20016;-68
2023/05/04 12:50:44;;;;;;;7.00;3.30;;;;;;;;;;5072466;28;20538;-68
2023/05/04 12:53:10;;;;;;;6.72;3.00;;;;;;;;;;5073105;28;20478;-68
2023/05/04 12:55:35;;;;;;;6.55;3.40;;;;;;;;;;5072881;28;20074;-68
2023/05/04 12:58:02;;;;;;;6.68;2.50;;;;;;;;;;5072622;28;20024;-68
2023/05/04 13:00:30;;;;;;;5.45;2.60;;;;;;;;;;5072525;28;20426;-68
2023/05/04 13:02:55;;;;;;;5.88;2.90;;;;;;;;;;5072205;28;20052;-68
2023/05/04 13:05:22;;;;;;;7.60;2.83;;;;;;;;;;5073076;28;20047;-68
2023/05/04 13:07:47;;;;;;;14.13;3.47;;;;;;;;;;5070657;28;20388;-68
2023/05/04 13:10:12;;;;;;;6.90;3.30;;;;;;;;;;5073707;28;20016;-68
2023/05/04 13:12:38;;;;;;;6.03;2.60;;;;;;;;;;5073144;28;20032;-68
2023/05/04 13:15:04;;;;;;;7.32;3.40;;;;;;;;;;5073271;28;20489;-68
2023/05/04 13:17:32;;;;;;;7.15;3.25;;;;;;;;;;5073427;28;20031;-69
2023/05/04 13:19:57;;;;;;;8.32;2.60;;;;;;;;;;5071629;28;20029;-68
2023/05/04 13:22:23;;;;;;;4.25;2.25;;;;;;;;;;5073526;28;20026;-68
2023/05/04 13:24:48;;;;;;;6.63;2.72;;;;;;;;;;5071742;28;20086;-68
2023/05/04 13:27:13;;;;;;;6.47;2.67;;;;;;;;;;5071746;28;20504;-68
2023/05/04 13:29:40;;;;;;;6.95;2.60;;;;;;;;;;5072926;28;20069;-68
2023/05/04 13:32:05;;;;;;;8.40;3.00;;;;;;;;;;5072807;28;20104;-68
2023/05/04 13:34:31;;;;;;;4.10;2.42;;;;;;;;;;5072929;28;20047;-68
2023/05/04 13:36:56;;;;;;;7.07;2.75;;;;;;;;;;5073031;28;20028;-69
2023/05/04 13:39:22;;;;;;;5.35;2.50;;;;;;;;;;5071527;28;20081;-69
2023/05/04 13:41:47;;;;;;;4.93;2.33;;;;;;;;;;5073225;28;20434;-68
2023/05/04 13:44:12;;;;;;;6.85;2.47;;;;;;;;;;5073166;28;20024;-69
2023/05/04 13:46:38;;;;;;;5.88;2.92;;;;;;;;;;5071906;28;20028;-68
2023/05/04 13:49:03;;;;;;;8.52;3.03;;;;;;;;;;5064062;28;20095;-67
2023/05/04 13:51:29;;;;;;;5.97;2.53;;;;;;;;;;5072814;28;20024;-68
2023/05/04 13:53:54;;;;;;;5.93;2.80;;;;;;;;;;5071590;28;20024;-68
2023/05/04 13:56:19;;;;;;;6.18;3.00;;;;;;;;;;5072512;28;20021;-68
2023/05/04 13:58:44;;;;;;;9.95;2.83;;;;;;;;;;5072654;28;20016;-68
2023/05/04 14:01:10;;;;;;;6.82;2.67;;;;;;;;;;5072408;28;20016;-68
2023/05/04 14:03:35;;;;;;;5.00;2.45;;;;;;;;;;5072991;28;20032;-68
2023/05/04 14:06:00;;;;;;;6.90;2.78;;;;;;;;;;5072616;28;20025;-68
2023/05/04 14:08:26;;;;;;;4.25;2.45;;;;;;;;;;5072996;28;20028;-68
2023/05/04 14:10:51;;;;;;;7.32;2.40;;;;;;;;;;5071046;28;20024;-67
2023/05/04 14:13:17;;;;;;;6.35;2.22;;;;;;;;;;5072910;28;20044;-68
2023/05/04 14:15:43;;;;;;;4.97;2.28;;;;;;;;;;5072862;28;20422;-68
2023/05/04 14:18:08;;;;;;;5.63;2.67;;;;;;;;;;5072768;28;20073;-68
2023/05/04 14:20:33;;;;;;;3.90;2.35;;;;;;;;;;5071911;28;20100;-68
2023/05/04 14:22:59;;;;;;;6.28;2.83;;;;;;;;;;5072913;28;20101;-67
2023/05/04 14:25:24;;;;;;;5.03;2.53;;;;;;;;;;5071274;28;20366;-68
2023/05/04 14:27:49;;;;;;;6.00;2.10;;;;;;;;;;5072704;28;20024;-68
2023/05/04 14:30:15;;;;;;;5.45;2.63;;;;;;;;;;5072773;28;20376;-67
2023/05/04 14:32:40;;;;;;;9.23;2.60;;;;;;;;;;5071991;28;20051;-68